Time;durP1;ratioP1;P1;durP2;ratioP2;P2;SDS_P1;SDS_P2;PMS_P1;PMS_P2;Temp;Humidity;BMP_temperature;BMP_pressure;BME280_temperature;BME280_humidity;BME280_pressure;Samples;Min_cycle;Max_cycle;Signal;HPM_P1;HPM_P2
2022/10/26 00:00:52;;;;;;;4.35;3.20;;;12.50;99.90;;;;;;6093389;23;20692;-70
2022/10/26 00:03:19;;;;;;;8.77;3.55;;;12.70;99.90;;;;;;6098119;23;20294;-70
2022/10/26 00:05:48;;;;;;;4.13;3.03;;;12.50;99.90;;;;;;6104517;23;20197;-70
2022/10/26 00:08:16;;;;;;;6.43;3.50;;;12.50;99.90;;;;;;6108203;23;20271;-70
2022/10/26 00:10:43;;;;;;;6.30;3.57;;;12.50;99.90;;;;;;6112592;23;20436;-70
2022/10/26 00:13:12;;;;;;;2.97;2.72;;;12.50;99.90;;;;;;6120691;23;20433;-70
2022/10/26 00:15:41;;;;;;;4.20;3.70;;;12.50;99.90;;;;;;6108185;23;20214;-70
2022/10/26 00:18:08;;;;;;;3.97;3.10;;;12.60;99.90;;;;;;6115066;23;20461;-70
2022/10/26 00:20:36;;;;;;;4.80;2.70;;;12.60;99.90;;;;;;6100844;23;20271;-70
2022/10/26 00:23:04;;;;;;;4.63;3.25;;;12.60;99.90;;;;;;6104419;23;20271;-70
2022/10/26 00:25:31;;;;;;;4.25;3.05;;;12.60;99.90;;;;;;6111316;23;20266;-70
2022/10/26 00:27:58;;;;;;;3.40;3.10;;;12.50;99.90;;;;;;6115772;23;20184;-70
2022/10/26 00:30:26;;;;;;;5.22;4.10;;;12.50;99.90;;;;;;6077587;23;20223;-70
2022/10/26 00:32:53;;;;;;;4.82;3.72;;;12.40;99.90;;;;;;6112970;23;20211;-70
2022/10/26 00:35:20;;;;;;;4.28;3.30;;;12.40;99.90;;;;;;6111170;23;20200;-70
2022/10/26 00:37:47;;;;;;;4.25;3.90;;;12.40;99.90;;;;;;6110736;23;20192;-70
2022/10/26 00:40:16;;;;;;;8.73;4.45;;;12.40;99.90;;;;;;6118642;23;20592;-68
2022/10/26 00:42:43;;;;;;;5.25;4.75;;;12.40;99.90;;;;;;6106199;23;20198;-70
2022/10/26 00:45:20;;;;;;;6.95;4.95;;;12.30;99.90;;;;;;6117528;23;20196;-70
2022/10/26 00:47:51;;;;;;;7.13;5.17;;;12.40;99.90;;;;;;6119294;23;20195;-70
2022/10/26 00:50:22;;;;;;;5.60;5.00;;;12.40;99.90;;;;;;6115060;23;20524;-70
2022/10/26 00:52:52;;;;;;;5.78;4.50;;;12.40;99.90;;;;;;6102228;23;20191;-70
2022/10/26 00:55:22;;;;;;;8.50;5.85;;;12.40;99.90;;;;;;6107845;23;20271;-70
2022/10/26 00:57:53;;;;;;;8.40;5.30;;;12.40;99.90;;;;;;6097795;23;20657;-70
2022/10/26 01:00:20;;;;;;;7.10;5.65;;;12.40;99.90;;;;;;6115595;23;20196;-70
2022/10/26 01:02:50;;;;;;;6.25;5.65;;;12.40;99.90;;;;;;6105513;23;20194;-70
2022/10/26 01:05:19;;;;;;;6.43;5.45;;;12.40;99.90;;;;;;6110963;23;20296;-70
2022/10/26 01:07:47;;;;;;;8.60;5.85;;;12.40;99.90;;;;;;6103747;23;20640;-70
2022/10/26 01:10:14;;;;;;;10.15;5.82;;;12.40;99.90;;;;;;6108872;23;20193;-70
2022/10/26 01:12:43;;;;;;;9.55;5.80;;;12.40;99.90;;;;;;6117178;23;20768;-70
2022/10/26 01:15:11;;;;;;;7.18;5.45;;;12.40;99.90;;;;;;6090648;23;20254;-70
2022/10/26 01:17:54;;;;;;;6.78;5.57;;;12.40;99.90;;;;;;6112041;23;20207;-70
2022/10/26 01:20:53;;;;;;;8.65;5.85;;;12.50;99.90;;;;;;6108664;23;20275;-70
2022/10/26 01:23:29;;;;;;;6.22;5.60;;;12.50;99.90;;;;;;6118286;23;20190;-70
2022/10/26 01:26:17;;;;;;;6.85;5.72;;;12.60;99.90;;;;;;6120246;23;20290;-70
2022/10/26 01:29:25;;;;;;;8.93;5.72;;;12.60;99.90;;;;;;6119483;23;20222;-71
2022/10/26 01:31:58;;;;;;;11.93;6.15;;;12.60;99.90;;;;;;6106704;23;20270;-70
2022/10/26 01:34:33;;;;;;;9.27;6.50;;;12.60;99.90;;;;;;6124466;23;20203;-71
2022/10/26 01:37:07;;;;;;;7.13;5.82;;;12.60;99.90;;;;;;6112097;23;20434;-70
2022/10/26 01:39:41;;;;;;;6.95;5.95;;;12.70;99.90;;;;;;6117661;23;20206;-70
2022/10/26 01:42:12;;;;;;;5.65;5.05;;;12.70;99.90;;;;;;6118388;23;20192;-70
2022/10/26 01:44:42;;;;;;;6.63;5.90;;;12.70;99.90;;;;;;6111546;23;20196;-70
2022/10/26 01:47:13;;;;;;;6.82;5.78;;;12.70;99.90;;;;;;6117729;23;20721;-71
2022/10/26 01:49:45;;;;;;;7.82;5.78;;;12.70;99.90;;;;;;6120267;23;20233;-71
2022/10/26 01:52:13;;;;;;;7.00;5.93;;;12.70;99.90;;;;;;6117224;23;20686;-70
2022/10/26 01:54:40;;;;;;;9.68;5.78;;;12.70;99.90;;;;;;6122207;23;20225;-70
2022/10/26 01:57:09;;;;;;;10.30;6.22;;;12.70;99.90;;;;;;6117031;23;20291;-70
2022/10/26 01:59:58;;;;;;;6.65;5.55;;;12.70;99.90;;;;;;6114053;23;20257;-71
2022/10/26 02:02:43;;;;;;;8.10;6.07;;;12.70;99.90;;;;;;6112579;23;20672;-70
2022/10/26 02:05:44;;;;;;;11.80;6.63;;;12.70;99.90;;;;;;6117651;23;20296;-71
2022/10/26 02:08:21;;;;;;;7.20;5.70;;;12.60;99.90;;;;;;6106561;23;20195;-71
2022/10/26 02:11:01;;;;;;;7.38;5.75;;;12.60;99.90;;;;;;6111035;23;20267;-71
2022/10/26 02:13:33;;;;;;;10.40;6.78;;;12.50;99.90;;;;;;6121873;23;20191;-71
2022/10/26 02:16:13;;;;;;;7.63;6.47;;;12.40;99.90;;;;;;6103936;23;20622;-71
2022/10/26 02:18:46;;;;;;;8.30;7.20;;;12.40;99.90;;;;;;6121494;23;20218;-71
2022/10/26 02:21:18;;;;;;;7.45;6.75;;;12.40;99.90;;;;;;6132640;23;20202;-71
2022/10/26 02:23:48;;;;;;;7.68;6.55;;;12.30;99.90;;;;;;6132994;23;20218;-71
2022/10/26 02:26:19;;;;;;;8.63;6.93;;;12.30;99.90;;;;;;6099306;23;20600;-71
2022/10/26 02:28:50;;;;;;;7.03;6.32;;;12.30;99.90;;;;;;6097449;23;20200;-70
2022/10/26 02:31:19;;;;;;;8.98;7.35;;;12.20;99.90;;;;;;6067326;23;20270;-71
2022/10/26 02:33:50;;;;;;;8.10;7.28;;;12.20;99.90;;;;;;6115027;23;20183;-70
2022/10/26 02:36:23;;;;;;;9.73;6.78;;;12.20;99.90;;;;;;6105778;23;20199;-71
2022/10/26 02:38:53;;;;;;;13.32;7.70;;;12.20;99.90;;;;;;6115100;23;20195;-71
2022/10/26 02:41:23;;;;;;;7.18;6.40;;;12.20;99.90;;;;;;6126642;23;20191;-71
2022/10/26 02:43:56;;;;;;;7.05;6.35;;;12.20;99.90;;;;;;6114593;23;20194;-71
2022/10/26 02:46:27;;;;;;;7.70;7.00;;;12.20;99.90;;;;;;6101549;23;20530;-71
2022/10/26 02:48:55;;;;;;;7.38;6.00;;;12.30;99.90;;;;;;6099957;23;20724;-71
2022/10/26 02:51:32;;;;;;;8.48;7.20;;;12.30;99.90;;;;;;6106983;23;20840;-71
2022/10/26 02:54:04;;;;;;;7.47;6.68;;;12.30;99.90;;;;;;6107381;23;20264;-71
2022/10/26 02:56:40;;;;;;;6.97;6.28;;;12.40;99.90;;;;;;6111679;23;20206;-71
2022/10/26 02:59:09;;;;;;;6.75;6.15;;;12.40;99.90;;;;;;6072616;23;20279;-70
2022/10/26 03:01:37;;;;;;;7.65;6.85;;;12.30;99.90;;;;;;6118133;23;20532;-71
2022/10/26 03:04:05;;;;;;;8.15;6.25;;;12.40;99.90;;;;;;6117589;23;20270;-71
2022/10/26 03:06:32;;;;;;;9.20;6.18;;;12.40;99.90;;;;;;6111385;23;20199;-71
2022/10/26 03:08:59;;;;;;;7.57;6.57;;;12.40;99.90;;;;;;6097425;23;20278;-71
2022/10/26 03:11:26;;;;;;;8.07;6.40;;;12.40;99.90;;;;;;6115613;23;20238;-71
2022/10/26 03:13:53;;;;;;;8.80;6.03;;;12.40;99.90;;;;;;6114441;23;20191;-71
2022/10/26 03:16:21;;;;;;;6.95;6.25;;;12.50;99.90;;;;;;6053017;23;1308215;-71
2022/10/26 03:18:48;;;;;;;7.50;6.30;;;12.50;99.90;;;;;;6080467;23;20565;-70
2022/10/26 03:21:16;;;;;;;7.22;5.90;;;12.50;99.90;;;;;;6102929;23;20534;-71
2022/10/26 03:23:45;;;;;;;7.18;6.05;;;12.50;99.90;;;;;;6126691;23;20267;-70
2022/10/26 03:26:12;;;;;;;10.85;6.85;;;12.60;99.90;;;;;;6117576;23;20210;-70
2022/10/26 03:28:39;;;;;;;6.95;6.05;;;12.60;99.90;;;;;;6117727;23;20271;-71
2022/10/26 03:31:07;;;;;;;6.53;5.93;;;12.70;99.90;;;;;;6114665;23;20276;-71
2022/10/26 03:33:34;;;;;;;6.73;6.03;;;12.60;99.90;;;;;;6115680;23;20661;-71
2022/10/26 03:36:00;;;;;;;9.20;6.30;;;12.70;99.90;;;;;;6078490;23;20494;-70
2022/10/26 03:38:29;;;;;;;6.13;5.37;;;12.80;99.90;;;;;;6110649;23;20280;-70
2022/10/26 03:40:56;;;;;;;7.53;5.87;;;12.80;99.90;;;;;;6107941;23;20527;-70
2022/10/26 03:43:23;;;;;;;6.88;5.18;;;12.80;99.90;;;;;;6110603;23;21005;-71
2022/10/26 03:45:50;;;;;;;7.70;6.33;;;12.80;99.90;;;;;;6114791;23;20513;-71
2022/10/26 03:48:17;;;;;;;6.57;5.57;;;12.80;99.90;;;;;;6092625;23;20492;-71
2022/10/26 03:50:45;;;;;;;9.82;7.10;;;12.80;99.90;;;;;;6116180;23;20506;-71
2022/10/26 03:53:12;;;;;;;8.68;6.28;;;12.80;99.90;;;;;;6118093;23;20278;-71
2022/10/26 03:55:44;;;;;;;6.88;6.18;;;12.70;99.90;;;;;;6127385;23;20210;-71
2022/10/26 03:58:10;;;;;;;7.50;6.00;;;12.80;99.90;;;;;;6099746;23;20199;-71
2022/10/26 04:00:38;;;;;;;6.83;6.20;;;12.70;99.90;;;;;;6119935;23;20544;-71
2022/10/26 04:03:05;;;;;;;6.80;6.15;;;12.70;99.90;;;;;;6107995;23;20471;-70
2022/10/26 04:05:32;;;;;;;8.27;6.87;;;12.60;99.90;;;;;;6138475;23;20281;-71
2022/10/26 04:08:02;;;;;;;7.50;6.10;;;12.60;99.90;;;;;;6115419;23;20438;-71
2022/10/26 04:10:29;;;;;;;7.28;6.32;;;12.60;99.90;;;;;;6106788;23;20188;-70
2022/10/26 04:13:00;;;;;;;7.25;6.32;;;12.60;99.90;;;;;;6117233;23;20274;-70
2022/10/26 04:15:27;;;;;;;7.32;5.35;;;12.60;99.90;;;;;;6117586;23;20264;-71
2022/10/26 04:17:58;;;;;;;6.73;6.13;;;12.50;99.90;;;;;;6118075;23;20540;-71
2022/10/26 04:20:26;;;;;;;8.35;6.00;;;12.50;99.90;;;;;;6123583;23;20489;-71
2022/10/26 04:22:58;;;;;;;7.47;6.25;;;12.50;99.90;;;;;;6106599;23;20672;-71
2022/10/26 04:25:25;;;;;;;9.82;7.15;;;12.50;99.90;;;;;;6118769;23;20234;-70
2022/10/26 04:27:52;;;;;;;7.38;6.60;;;12.50;99.90;;;;;;6117800;23;20199;-71
2022/10/26 04:30:22;;;;;;;7.60;6.37;;;12.50;99.90;;;;;;6107153;23;20222;-72
2022/10/26 04:32:49;;;;;;;8.30;7.18;;;12.50;99.90;;;;;;6107272;23;20990;-72
2022/10/26 04:35:16;;;;;;;8.65;6.72;;;12.50;99.90;;;;;;6110967;23;21138;-72
2022/10/26 04:37:43;;;;;;;9.88;6.30;;;12.60;99.90;;;;;;6111356;23;20267;-72
2022/10/26 04:40:11;;;;;;;9.77;6.85;;;12.60;99.90;;;;;;6112029;23;20588;-73
2022/10/26 04:42:42;;;;;;;7.75;6.55;;;12.60;99.90;;;;;;6114212;23;20200;-72
2022/10/26 04:45:10;;;;;;;6.88;6.18;;;12.60;99.90;;;;;;6087734;23;20632;-72
2022/10/26 04:47:39;;;;;;;9.32;6.57;;;12.60;99.90;;;;;;6106245;23;20195;-71
2022/10/26 04:50:08;;;;;;;10.88;6.60;;;12.60;99.90;;;;;;6111699;23;20183;-71
2022/10/26 04:52:36;;;;;;;7.60;5.50;;;12.60;99.90;;;;;;6118644;23;20183;-71
2022/10/26 04:55:04;;;;;;;8.38;5.93;;;12.50;99.90;;;;;;6097469;23;20263;-71
2022/10/26 04:57:32;;;;;;;6.68;5.97;;;12.50;99.90;;;;;;6111293;23;20233;-71
2022/10/26 05:00:00;;;;;;;5.80;5.00;;;12.50;99.90;;;;;;6104524;23;20315;-71
2022/10/26 05:02:28;;;;;;;7.32;4.70;;;12.50;99.90;;;;;;6112127;23;20234;-72
2022/10/26 05:04:56;;;;;;;6.15;4.88;;;12.40;99.90;;;;;;6120996;23;20688;-71
2022/10/26 05:07:24;;;;;;;5.75;4.53;;;12.40;99.90;;;;;;6110606;23;20270;-71
2022/10/26 05:09:51;;;;;;;5.32;4.80;;;12.50;99.90;;;;;;6107682;23;20185;-71
2022/10/26 05:12:18;;;;;;;6.28;4.80;;;12.50;99.90;;;;;;6092298;23;20230;-71
2022/10/26 05:14:45;;;;;;;6.38;4.60;;;12.60;99.90;;;;;;6111627;23;20202;-71
2022/10/26 05:17:12;;;;;;;7.97;5.07;;;12.60;99.90;;;;;;6101778;23;20536;-72
2022/10/26 05:19:39;;;;;;;5.33;4.93;;;12.60;99.90;;;;;;6117107;23;20230;-72
2022/10/26 05:22:08;;;;;;;7.22;5.32;;;12.60;99.90;;;;;;6115029;23;20512;-72
2022/10/26 05:24:35;;;;;;;5.70;3.80;;;12.70;99.90;;;;;;6111350;23;20220;-72
2022/10/26 05:27:02;;;;;;;6.38;5.00;;;12.60;99.90;;;;;;6123904;23;20513;-72
2022/10/26 05:29:29;;;;;;;8.10;4.70;;;12.70;99.90;;;;;;6116780;23;20258;-72
2022/10/26 05:31:56;;;;;;;8.40;4.90;;;12.70;99.90;;;;;;6120594;23;20183;-72
2022/10/26 05:34:23;;;;;;;6.50;4.70;;;12.70;99.90;;;;;;6115872;23;20554;-72
2022/10/26 05:36:53;;;;;;;5.68;4.72;;;12.70;99.90;;;;;;6121512;23;20509;-72
2022/10/26 05:39:21;;;;;;;4.75;4.28;;;12.70;99.90;;;;;;6117600;23;20679;-72
2022/10/26 05:41:48;;;;;;;5.57;4.50;;;12.70;99.90;;;;;;6111140;23;20266;-72
2022/10/26 05:44:16;;;;;;;4.95;4.22;;;12.70;99.90;;;;;;6117881;23;20462;-72
2022/10/26 05:46:43;;;;;;;5.03;4.13;;;12.70;99.90;;;;;;6105311;23;20195;-71
2022/10/26 05:49:10;;;;;;;6.35;4.75;;;12.80;99.90;;;;;;6112690;23;20511;-72
2022/10/26 05:51:38;;;;;;;8.65;4.97;;;12.80;99.90;;;;;;6115104;23;20274;-72
2022/10/26 05:54:07;;;;;;;12.07;4.70;;;12.80;99.90;;;;;;6114084;23;20183;-72
2022/10/26 05:56:37;;;;;;;4.70;4.30;;;12.80;99.90;;;;;;6106337;23;20294;-72
2022/10/26 05:59:10;;;;;;;6.30;4.13;;;12.90;99.90;;;;;;6104214;23;20518;-72
2022/10/26 06:01:48;;;;;;;6.83;4.67;;;12.90;99.90;;;;;;6104648;23;20967;-72
2022/10/26 06:04:29;;;;;;;4.43;4.03;;;12.90;99.90;;;;;;6070507;23;20527;-72
2022/10/26 06:06:57;;;;;;;5.00;4.10;;;12.90;99.90;;;;;;6103819;23;20922;-73
2022/10/26 06:09:26;;;;;;;8.50;4.17;;;13.00;99.90;;;;;;6103274;23;20338;-72
2022/10/26 06:11:55;;;;;;;5.70;4.40;;;13.00;99.90;;;;;;6095687;23;20431;-73
2022/10/26 06:14:24;;;;;;;6.67;4.30;;;13.10;99.90;;;;;;6108289;23;20427;-72
2022/10/26 06:17:04;;;;;;;5.60;4.33;;;13.10;99.90;;;;;;6105251;23;20542;-72
2022/10/26 06:19:46;;;;;;;5.47;4.27;;;13.20;99.90;;;;;;6119435;23;20798;-72
2022/10/26 06:22:25;;;;;;;4.50;3.87;;;13.30;99.90;;;;;;6093465;23;20515;-72
2022/10/26 06:25:02;;;;;;;4.57;3.73;;;13.30;99.90;;;;;;6105851;23;20434;-72
2022/10/26 06:27:40;;;;;;;5.20;3.83;;;13.40;99.90;;;;;;6090778;23;20430;-72
2022/10/26 06:30:10;;;;;;;4.43;3.90;;;13.40;99.90;;;;;;6136981;23;20422;-72
2022/10/26 06:32:39;;;;;;;4.33;3.93;;;13.50;99.90;;;;;;6103800;23;20932;-72
2022/10/26 06:35:20;;;;;;;4.67;4.00;;;13.50;99.90;;;;;;6091019;23;20939;-72
2022/10/26 06:37:50;;;;;;;4.30;3.90;;;13.50;99.90;;;;;;6101976;23;20474;-72
2022/10/26 06:40:18;;;;;;;6.93;4.03;;;13.50;99.90;;;;;;6120772;23;20886;-72
2022/10/26 06:42:48;;;;;;;4.93;3.97;;;13.50;99.90;;;;;;6108085;23;20543;-72
2022/10/26 06:45:17;;;;;;;5.57;3.87;;;13.50;99.90;;;;;;6116925;23;20450;-73
2022/10/26 06:47:52;;;;;;;5.83;4.27;;;13.60;99.90;;;;;;6117701;23;20447;-73
2022/10/26 06:50:31;;;;;;;5.23;4.73;;;13.60;99.90;;;;;;6114588;23;20431;-73
2022/10/26 06:53:09;;;;;;;7.30;4.40;;;13.60;99.90;;;;;;6119385;23;20432;-73
2022/10/26 06:55:41;;;;;;;4.57;4.17;;;13.60;99.90;;;;;;6093171;23;20509;-73
2022/10/26 06:58:15;;;;;;;6.33;4.10;;;13.60;99.90;;;;;;6119059;23;20433;-73
2022/10/26 07:00:43;;;;;;;5.63;3.80;;;13.70;99.90;;;;;;6118232;23;20552;-73
2022/10/26 07:03:10;;;;;;;6.27;4.40;;;13.70;99.90;;;;;;6118625;23;20443;-73
2022/10/26 07:05:37;;;;;;;5.73;4.50;;;13.80;99.90;;;;;;6121907;23;20435;-73
2022/10/26 07:08:05;;;;;;;5.17;4.10;;;13.90;99.90;;;;;;6103152;23;20464;-71
2022/10/26 07:10:33;;;;;;;6.47;4.63;;;13.90;99.90;;;;;;6121164;23;20453;-71
2022/10/26 07:13:01;;;;;;;5.60;5.00;;;14.00;99.90;;;;;;6115438;23;20489;-70
2022/10/26 07:15:29;;;;;;;5.87;4.70;;;14.00;99.90;;;;;;6091431;23;20433;-71
2022/10/26 07:17:56;;;;;;;6.67;5.13;;;14.00;99.90;;;;;;6130319;23;20809;-73
2022/10/26 07:20:23;;;;;;;5.80;3.97;;;14.00;99.90;;;;;;6102723;23;20800;-73
2022/10/26 07:22:54;;;;;;;7.50;4.70;;;14.00;99.90;;;;;;6118092;23;20437;-72
2022/10/26 07:25:21;;;;;;;4.60;4.13;;;14.00;99.90;;;;;;6120125;23;20419;-73
2022/10/26 07:27:48;;;;;;;5.37;4.87;;;14.10;99.90;;;;;;6141693;23;20429;-73
2022/10/26 07:30:16;;;;;;;5.37;4.87;;;14.10;99.90;;;;;;6149509;23;20427;-73
2022/10/26 07:32:44;;;;;;;5.90;4.33;;;14.10;99.90;;;;;;6138038;23;20806;-73
2022/10/26 07:35:12;;;;;;;5.20;4.03;;;14.10;99.90;;;;;;6136098;23;20435;-73
2022/10/26 07:37:39;;;;;;;6.10;4.20;;;14.20;99.90;;;;;;6124110;23;20437;-73
2022/10/26 07:40:07;;;;;;;5.23;4.70;;;14.20;99.90;;;;;;6090842;23;20458;-73
2022/10/26 07:42:35;;;;;;;6.27;4.60;;;14.20;99.90;;;;;;6096903;23;20513;-73
2022/10/26 07:45:04;;;;;;;5.53;4.00;;;14.30;99.90;;;;;;6117829;23;20511;-73
2022/10/26 07:47:31;;;;;;;6.60;3.63;;;14.20;99.90;;;;;;6117386;23;20782;-73
2022/10/26 07:50:00;;;;;;;4.40;3.40;;;14.30;99.90;;;;;;6120093;23;20428;-73
2022/10/26 07:52:27;;;;;;;6.53;3.97;;;14.20;99.90;;;;;;6110964;23;20452;-73
2022/10/26 07:54:54;;;;;;;4.03;3.60;;;14.20;99.90;;;;;;6126882;23;20756;-73
2022/10/26 07:57:21;;;;;;;4.40;3.70;;;14.20;99.90;;;;;;6116080;23;20482;-73
2022/10/26 07:59:48;;;;;;;5.07;3.53;;;14.20;99.90;;;;;;6091169;23;20723;-73
2022/10/26 08:02:15;;;;;;;5.90;3.97;;;14.20;99.90;;;;;;6102362;23;20965;-73
2022/10/26 08:04:42;;;;;;;5.33;4.13;;;14.20;99.90;;;;;;6096222;23;20440;-73
2022/10/26 08:07:11;;;;;;;4.40;3.70;;;14.30;99.90;;;;;;6108085;23;20814;-72
2022/10/26 08:09:38;;;;;;;4.13;3.40;;;14.20;99.90;;;;;;6094023;23;20505;-73
2022/10/26 08:12:05;;;;;;;4.77;3.33;;;14.20;99.90;;;;;;6117611;23;20786;-74
2022/10/26 08:14:33;;;;;;;4.10;3.70;;;14.30;99.90;;;;;;6123555;23;20456;-72
2022/10/26 08:17:00;;;;;;;4.83;3.50;;;14.30;99.90;;;;;;6118513;23;20881;-72
2022/10/26 08:19:27;;;;;;;3.73;3.43;;;14.40;99.90;;;;;;6103589;23;20803;-72
2022/10/26 08:21:55;;;;;;;5.00;3.60;;;14.50;99.90;;;;;;6121885;23;20468;-73
2022/10/26 08:24:23;;;;;;;5.50;3.50;;;14.60;99.90;;;;;;6118458;23;21279;-72
2022/10/26 08:26:50;;;;;;;4.50;3.57;;;14.80;99.90;;;;;;6097337;23;20439;-73
2022/10/26 08:29:18;;;;;;;3.93;3.57;;;14.80;99.90;;;;;;6065519;23;20436;-72
2022/10/26 08:31:46;;;;;;;3.73;3.10;;;14.90;99.90;;;;;;6095537;23;20635;-72
2022/10/26 08:34:14;;;;;;;7.23;3.40;;;15.00;99.90;;;;;;6118323;23;20480;-72
2022/10/26 08:36:41;;;;;;;3.87;2.90;;;15.10;99.90;;;;;;6106854;23;20434;-73
2022/10/26 08:39:08;;;;;;;4.53;3.30;;;15.30;99.90;;;;;;6090604;23;20533;-73
2022/10/26 08:41:40;;;;;;;3.87;2.90;;;15.40;99.90;;;;;;6121044;23;20449;-72
2022/10/26 08:44:22;;;;;;;6.40;2.80;;;15.50;99.90;;;;;;6121679;23;20514;-71
2022/10/26 08:46:52;;;;;;;4.10;2.90;;;15.60;99.90;;;;;;6146812;23;20425;-71
2022/10/26 08:49:24;;;;;;;4.90;2.60;;;15.70;99.90;;;;;;6118415;23;20478;-71
2022/10/26 08:51:54;;;;;;;4.63;2.90;;;15.70;99.90;;;;;;6117947;23;21021;-71
2022/10/26 08:54:33;;;;;;;3.47;3.17;;;15.90;99.90;;;;;;6114167;23;20512;-71
2022/10/26 08:57:10;;;;;;;4.17;2.83;;;15.90;99.90;;;;;;6119823;23;20433;-71
2022/10/26 08:59:43;;;;;;;4.30;2.73;;;16.00;99.90;;;;;;6102742;23;20437;-71
2022/10/26 09:02:12;;;;;;;4.90;2.80;;;16.10;99.90;;;;;;6100196;23;20454;-71
2022/10/26 09:04:40;;;;;;;4.60;2.73;;;16.20;99.90;;;;;;6118571;23;20493;-71
2022/10/26 09:07:17;;;;;;;5.37;3.13;;;16.30;99.90;;;;;;6117400;23;20454;-72
2022/10/26 09:09:51;;;;;;;4.80;2.50;;;16.40;99.90;;;;;;6089878;23;20513;-72
2022/10/26 09:12:26;;;;;;;5.07;2.57;;;16.50;99.90;;;;;;6102277;23;20895;-72
2022/10/26 09:15:03;;;;;;;5.50;2.60;;;16.60;99.90;;;;;;6112250;23;20839;-72
2022/10/26 09:17:40;;;;;;;4.20;2.80;;;16.90;99.90;;;;;;6107313;23;21030;-72
2022/10/26 09:20:25;;;;;;;5.00;2.40;;;17.10;99.90;;;;;;6090719;23;20481;-72
2022/10/26 09:23:01;;;;;;;3.97;2.53;;;17.30;99.90;;;;;;6071739;23;20491;-73
2022/10/26 09:25:38;;;;;;;3.13;2.23;;;17.50;99.90;;;;;;6117805;23;20443;-73
2022/10/26 09:28:14;;;;;;;3.30;2.60;;;17.80;99.90;;;;;;6075119;23;21098;-73
2022/10/26 09:30:44;;;;;;;4.63;2.40;;;17.90;99.90;;;;;;6098982;23;20991;-73
2022/10/26 09:33:18;;;;;;;4.40;2.20;;;18.20;99.90;;;;;;6101201;23;20438;-72
2022/10/26 09:35:51;;;;;;;3.50;2.63;;;18.50;99.90;;;;;;6089375;23;20445;-72
2022/10/26 09:38:25;;;;;;;2.57;2.20;;;18.70;99.90;;;;;;6108671;23;20516;-73
2022/10/26 09:40:55;;;;;;;2.83;2.27;;;19.00;99.90;;;;;;6118741;23;20458;-73
2022/10/26 09:43:30;;;;;;;2.50;2.30;;;19.20;99.90;;;;;;6108618;23;20443;-73
2022/10/26 09:45:57;;;;;;;3.03;2.60;;;19.70;99.90;;;;;;6083282;23;20424;-73
2022/10/26 09:48:31;;;;;;;3.73;2.87;;;20.30;99.90;;;;;;6119736;23;20471;-73
2022/10/26 09:50:59;;;;;;;4.50;2.23;;;20.90;99.90;;;;;;6119903;23;20837;-73
2022/10/26 09:53:26;;;;;;;4.43;2.57;;;21.40;99.90;;;;;;6093099;23;20478;-73
2022/10/26 09:56:01;;;;;;;4.47;2.03;;;22.00;99.90;;;;;;6120715;23;20449;-73
2022/10/26 09:58:32;;;;;;;3.57;2.00;;;22.70;99.90;;;;;;6092703;23;20471;-73
2022/10/26 10:00:59;;;;;;;3.90;2.50;;;23.30;99.90;;;;;;6099002;23;20472;-73
2022/10/26 10:03:28;;;;;;;5.33;2.63;;;23.60;99.90;;;;;;6103887;23;20449;-73
2022/10/26 10:06:15;;;;;;;5.70;2.50;;;23.30;99.90;;;;;;6091056;23;20498;-72
2022/10/26 10:08:43;;;;;;;6.40;3.43;;;22.80;99.90;;;;;;6091429;23;20492;-73
2022/10/26 10:11:12;;;;;;;5.73;2.63;;;22.40;99.90;;;;;;6100536;23;20432;-73
2022/10/26 10:13:42;;;;;;;5.57;2.77;;;21.90;99.90;;;;;;6097234;23;20448;-72
2022/10/26 10:16:13;;;;;;;6.10;2.90;;;21.50;99.90;;;;;;6119876;23;20420;-72
2022/10/26 10:18:41;;;;;;;3.60;2.50;;;21.20;99.90;;;;;;6091352;23;20441;-72
2022/10/26 10:21:09;;;;;;;5.77;3.37;;;20.90;99.90;;;;;;6119614;23;21005;-72
2022/10/26 10:23:47;;;;;;;7.33;3.50;;;20.70;99.90;;;;;;6095089;23;20476;-72
2022/10/26 10:26:15;;;;;;;6.60;4.30;;;20.50;99.90;;;;;;6090825;23;20839;-73
2022/10/26 10:28:55;;;;;;;6.10;3.93;;;20.40;99.90;;;;;;6107653;23;20460;-73
2022/10/26 10:31:27;;;;;;;5.10;3.87;;;20.30;99.90;;;;;;6146387;23;20427;-73
2022/10/26 10:33:54;;;;;;;5.60;3.20;;;20.30;99.90;;;;;;6117597;23;20448;-72
2022/10/26 10:36:23;;;;;;;5.23;3.30;;;20.30;99.90;;;;;;6119640;23;20451;-72
2022/10/26 10:38:52;;;;;;;7.50;3.00;;;20.30;99.90;;;;;;6119287;23;20425;-72
2022/10/26 10:41:24;;;;;;;4.40;2.47;;;20.10;99.90;;;;;;6080074;23;20446;-72
2022/10/26 10:43:59;;;;;;;4.87;2.70;;;20.10;99.90;;;;;;6131971;23;20445;-73
2022/10/26 10:46:27;;;;;;;4.90;2.73;;;20.10;99.90;;;;;;6095557;23;20450;-73
2022/10/26 10:49:03;;;;;;;6.23;2.33;;;20.10;99.90;;;;;;6103306;23;20443;-72
2022/10/26 10:51:36;;;;;;;6.13;2.80;;;20.10;99.90;;;;;;6090867;23;20422;-72
2022/10/26 10:54:05;;;;;;;4.90;3.27;;;20.20;99.90;;;;;;6116671;23;20441;-72
2022/10/26 10:56:37;;;;;;;5.20;2.90;;;20.70;99.90;;;;;;6121367;23;20491;-72
2022/10/26 10:59:41;;;;;;;4.73;3.77;;;21.50;99.90;;;;;;6101372;23;20981;-73
2022/10/26 11:02:51;;;;;;;4.50;3.03;;;22.20;99.90;;;;;;6117635;23;20457;-72
2022/10/26 11:05:37;;;;;;;6.57;3.10;;;22.70;99.90;;;;;;6005357;23;20474;-70
2022/10/26 11:08:11;;;;;;;6.60;3.40;;;23.10;99.90;;;;;;6100616;23;20465;-72
2022/10/26 11:10:44;;;;;;;3.57;2.77;;;23.40;99.90;;;;;;6119468;23;20944;-74
2022/10/26 11:13:17;;;;;;;4.90;2.57;;;23.40;99.90;;;;;;6117332;23;20927;-73
2022/10/26 11:15:49;;;;;;;4.93;2.77;;;23.30;99.90;;;;;;6105766;23;20587;-75
2022/10/26 11:18:21;;;;;;;3.83;2.30;;;23.40;99.90;;;;;;6088086;23;20441;-76
2022/10/26 11:20:56;;;;;;;5.87;2.80;;;23.60;99.90;;;;;;6100692;23;20425;-74
2022/10/26 11:23:28;;;;;;;3.97;2.17;;;23.90;99.90;;;;;;6065119;23;20468;-74
2022/10/26 11:26:01;;;;;;;5.47;2.47;;;24.10;99.90;;;;;;6110063;23;20854;-73
2022/10/26 11:28:39;;;;;;;4.33;2.80;;;24.40;99.90;;;;;;6098453;23;20493;-82
2022/10/26 11:31:11;;;;;;;5.30;2.17;;;24.20;99.90;;;;;;6105402;23;20750;-74
2022/10/26 11:33:43;;;;;;;3.70;2.27;;;23.90;99.90;;;;;;6117254;23;20508;-76
2022/10/26 11:36:14;;;;;;;7.03;2.90;;;23.80;99.90;;;;;;6147211;23;20515;-76
2022/10/26 11:38:48;;;;;;;3.50;2.50;;;23.70;99.90;;;;;;6108090;23;20839;-76
2022/10/26 11:41:20;;;;;;;4.67;2.50;;;23.50;99.90;;;;;;6099100;23;20519;-76
2022/10/26 11:43:49;;;;;;;5.10;2.40;;;23.60;99.90;;;;;;6120586;23;20444;-76
2022/10/26 11:46:21;;;;;;;4.90;2.20;;;23.60;99.90;;;;;;6096146;23;20496;-76
2022/10/26 11:48:54;;;;;;;3.23;2.00;;;23.60;99.90;;;;;;6119813;23;20434;-76
2022/10/26 11:51:37;;;;;;;3.57;2.23;;;23.40;99.90;;;;;;6142607;23;20432;-77
2022/10/26 11:54:11;;;;;;;3.77;1.73;;;23.20;99.90;;;;;;6094902;23;20431;-75
2022/10/26 11:56:44;;;;;;;4.03;1.97;;;23.10;99.90;;;;;;6120942;23;20501;-78
2022/10/26 11:59:19;;;;;;;3.03;1.80;;;23.00;99.90;;;;;;6095151;23;20512;-78
2022/10/26 12:01:51;;;;;;;4.33;2.13;;;23.00;99.90;;;;;;6116696;23;20962;-74
2022/10/26 12:04:21;;;;;;;6.47;2.00;;;23.10;99.90;;;;;;6091416;23;20476;-73
2022/10/26 12:06:51;;;;;;;3.83;1.80;;;23.20;99.90;;;;;;6095703;23;20439;-73
2022/10/26 12:09:22;;;;;;;4.20;2.07;;;23.30;99.90;;;;;;6129491;23;20428;-73
2022/10/26 12:11:57;;;;;;;4.10;2.40;;;23.30;99.90;;;;;;6113295;23;21113;-73
2022/10/26 12:14:28;;;;;;;2.40;1.60;;;23.10;99.90;;;;;;6091676;23;20445;-75
2022/10/26 12:17:02;;;;;;;2.97;1.50;;;23.00;99.90;;;;;;6097318;23;20538;-74
2022/10/26 12:19:36;;;;;;;2.87;1.87;;;23.00;99.90;;;;;;6115606;23;20420;-74
2022/10/26 12:22:04;;;;;;;2.00;1.80;;;22.80;99.90;;;;;;6119928;23;20687;-75
2022/10/26 12:24:34;;;;;;;4.30;1.70;;;22.80;99.90;;;;;;6120879;23;20437;-74
2022/10/26 12:27:03;;;;;;;2.37;1.67;;;22.90;99.90;;;;;;6124278;23;20773;-77
2022/10/26 12:29:45;;;;;;;3.17;2.00;;;23.00;99.90;;;;;;6105091;23;20980;-77
2022/10/26 12:32:49;;;;;;;4.40;2.13;;;23.20;99.90;;;;;;6118112;23;20432;-77
2022/10/26 12:35:40;;;;;;;4.53;2.03;;;23.30;99.90;;;;;;6116820;23;20482;-74
2022/10/26 12:38:47;;;;;;;3.30;2.00;;;23.30;99.90;;;;;;6121999;23;20517;-81
2022/10/26 12:41:21;;;;;;;3.43;2.07;;;23.20;99.90;;;;;;6096473;23;20844;-76
2022/10/26 12:43:49;;;;;;;2.90;2.20;;;23.10;99.90;;;;;;6118820;23;20807;-75
2022/10/26 12:46:41;;;;;;;4.17;2.33;;;23.20;99.90;;;;;;6118885;23;20517;-74
2022/10/26 12:49:49;;;;;;;5.50;2.40;;;23.20;99.90;;;;;;6119807;23;20517;-78
2022/10/26 12:52:27;;;;;;;3.70;1.90;;;23.10;99.90;;;;;;6097965;23;20493;-78
2022/10/26 12:55:19;;;;;;;3.90;2.40;;;23.20;99.90;;;;;;6118071;23;20922;-78
2022/10/26 12:57:57;;;;;;;4.40;1.97;;;23.20;99.90;;;;;;6117824;23;20913;-78
2022/10/26 13:00:26;;;;;;;3.63;1.80;;;23.30;99.90;;;;;;6091081;23;20477;-78
2022/10/26 13:03:05;;;;;;;4.27;2.20;;;23.40;99.90;;;;;;6093620;23;20524;-78
2022/10/26 13:06:03;;;;;;;4.73;2.00;;;23.50;99.90;;;;;;6122788;23;20444;-78
2022/10/26 13:08:41;;;;;;;3.70;2.10;;;23.60;99.90;;;;;;6102431;23;20465;-78